High Island, TX

2:09 AM CST on January 18, 2017 (GMT -0600)
Brazoria County | | Change Station
Active Advisory: Marine Fog Advisory

Elev 23 ft 29.11 °N, 95.46 °W | Updated 16 minutes ago

Partly Cloudy
Partly Cloudy
74 °F
Feels Like 74 °F
N
15
Wind Variable Wind from SSE

Today
High -- | Low -- °F
--% Chance of Precip.
Yesterday
High -- | Low -- °F
Precip. -- in
Pressure 30.02 in
Visibility 10.0 miles
Clouds Mostly Cloudy 1100 ft
Mostly Cloudy 1700 ft
Overcast 2600 ft
Dew Point 71 °F
Humidity 91%
Rainfall 0.00 in
Snow Depth Not available.
7:09 AM 5:46 PM
Waning Gibbous, 65% visible
METAR KLBX 180753Z AUTO 16013KT 10SM BKN011 BKN017 OVC026 23/22 A3002 RMK AO2 SLP164 T02330217
Pressure 30.02 in
Visibility 10.0 miles
Clouds Mostly Cloudy 1100 ft
Mostly Cloudy 1700 ft
Overcast 2600 ft
Dew Point 71 °F
Humidity 91%
Rainfall 0.00 in
Snow Depth Not available.
7:09 AM 5:46 PM
Waning Gibbous, 65% visible
METAR KLBX 180753Z AUTO 16013KT 10SM BKN011 BKN017 OVC026 23/22 A3002 RMK AO2 SLP164 T02330217

Get Your Daily Forecast Email!

Thanks for signing up!

Be on the lookout for a verification email in your inbox.

You'll start receiving the daily forecast at 8 AM.

×

10-Day Weather Forecast

Almanac

Astronomy

Jan. 18, 2017 Rise Set
Actual Time
Civil Twilight
Nautical Twilight
Astronomical Twilight
Moon
Length of Visible Light
Length of Day
Tomorrow will be .
, % of the Moon is Illuminated

Today's Extremes

State Highs State Lows

Community

WunderPhotos

Upload Photos

1,962,540 photos uploaded!

WunderBlog® & News

Nearby

Air Quality

  Air Quality AQ Index Pollutant
Not available.

Snow Depth

Station Depth Elevation

Earthquake Activity

City Distance Mag. Time & Date
Minimum magnitude displayed is 2.5.

Coastal Water Temperatures

Place Temperature

Stations

Nearby Weather Stations

Station Location Temp. Windchill Dew Point Humidity Wind Precip. Elev Updated Type
                   

Watches & Warnings

Marine Fog Advisory
Issued: 11:43 PM CST Jan. 17, 2017 – National Weather Service

... Dense fog advisory in effect until 4 am CST Wednesday...

The National Weather Service in Houston/Galveston has issued a
dense fog advisory... which is in effect until 4 am CST Wednesday.

* Visibility... below 1 nm at times.

Precautionary/preparedness actions...

Mariners should be prepared for sudden changes in visibility over
short distances. Reduce your speed and keep a lookout for other
vessels... buoys and breakwaters. Keep your navigation lights on.
Inexperienced mariners... especially those operating smaller craft
or not equipped with radar... should consider seeking safe Harbor.